createdAt,value
2023-02-18T00:03:17.728Z,11.53
2023-02-18T00:08:40.282Z,20.27
2023-02-18T00:14:04.940Z,14.25
2023-02-18T00:19:30.594Z,14.38
2023-02-18T00:24:52.816Z,11.03
2023-02-18T00:30:15.330Z,12.10
2023-02-18T00:35:37.706Z,19.75
2023-02-18T00:41:00.492Z,18.10
2023-02-18T00:46:24.362Z,15.55
2023-02-18T00:51:47.657Z,12.10
2023-02-18T00:57:09.973Z,14.00
2023-02-18T01:02:32.163Z,9.97
2023-02-18T01:07:54.409Z,12.98
2023-02-18T01:13:17.018Z,15.18
2023-02-18T01:18:40.167Z,14.25
2023-02-18T01:24:03.081Z,17.60
2023-02-18T01:29:25.617Z,16.65
2023-02-18T01:34:47.928Z,14.00
2023-02-18T01:40:10.414Z,16.95
2023-02-18T01:46:11.054Z,12.20
2023-02-18T01:51:43.117Z,15.43
2023-02-18T01:57:19.282Z,18.85
2023-02-18T02:02:45.731Z,16.52
2023-02-18T02:08:09.895Z,15.80
2023-02-18T02:14:04.994Z,19.60
2023-02-18T02:20:16.071Z,13.47
2023-02-18T02:31:27.850Z,19.73
2023-02-18T02:37:04.042Z,13.67
2023-02-18T02:42:49.773Z,9.57
2023-02-18T02:48:37.931Z,15.67
2023-02-18T02:54:01.975Z,12.73
2023-02-18T02:59:39.408Z,12.60
2023-02-18T03:05:24.629Z,17.80
2023-02-18T03:11:01.252Z,15.43
2023-02-18T03:16:52.101Z,11.35
2023-02-18T03:22:35.790Z,14.17
2023-02-18T03:28:05.818Z,15.27
2023-02-18T03:33:42.211Z,12.20
2023-02-18T03:39:18.082Z,13.47
2023-02-18T03:44:40.299Z,14.67
2023-02-18T03:50:02.568Z,10.03
2023-02-18T03:55:25.382Z,16.70
2023-02-18T04:00:48.209Z,15.45
2023-02-18T04:06:10.780Z,13.33
2023-02-18T04:11:33.029Z,15.40
2023-02-18T04:16:55.279Z,15.27
2023-02-18T04:22:17.541Z,14.03
2023-02-18T04:27:39.887Z,11.97
2023-02-18T04:33:02.465Z,10.17
2023-02-18T04:38:25.158Z,9.53
2023-02-18T04:43:48.224Z,12.17
2023-02-18T04:49:10.505Z,12.80
2023-02-18T04:54:32.731Z,14.90
2023-02-18T04:59:55.089Z,17.43
2023-02-18T05:05:18.019Z,18.10
2023-02-18T05:10:40.583Z,16.67
2023-02-18T05:16:03.674Z,17.97
2023-02-18T05:21:25.963Z,12.73
2023-02-18T05:26:48.443Z,14.73
2023-02-18T05:32:10.789Z,19.73
2023-02-18T05:37:33.013Z,10.77
2023-02-18T05:42:55.198Z,10.17
2023-02-18T05:48:17.558Z,17.17
2023-02-18T05:53:39.823Z,14.23
2023-02-18T05:59:02.059Z,22.97
2023-02-18T06:04:24.545Z,17.90
2023-02-18T06:09:47.658Z,19.70
2023-02-18T06:15:10.151Z,16.55
2023-02-18T06:20:32.567Z,21.73
2023-02-18T06:25:56.019Z,16.30
2023-02-18T06:31:18.565Z,11.13
2023-02-18T06:36:41.022Z,13.47
2023-02-18T06:42:03.287Z,19.33
2023-02-18T06:47:25.536Z,19.50
2023-02-18T06:52:48.264Z,16.17
2023-02-18T06:58:10.668Z,26.97
2023-02-18T07:03:33.717Z,18.20
2023-02-18T07:08:56.013Z,17.27
2023-02-18T07:14:18.209Z,22.58
2023-02-18T07:19:40.510Z,20.02
2023-02-18T07:25:06.206Z,24.37
2023-02-18T07:30:28.713Z,29.20
2023-02-18T07:35:51.015Z,19.23
2023-02-18T07:41:14.689Z,15.53
2023-02-18T07:46:36.978Z,19.43
2023-02-18T07:52:04.426Z,17.55
2023-02-18T07:57:26.965Z,16.57
2023-02-18T08:02:50.092Z,20.12
2023-02-18T08:08:12.812Z,22.67
2023-02-18T08:13:35.826Z,16.40
2023-02-18T08:18:58.507Z,27.07
2023-02-18T08:24:20.862Z,16.10
2023-02-18T08:29:43.598Z,23.93
2023-02-18T08:35:06.111Z,16.80
2023-02-18T08:40:30.211Z,16.90
2023-02-18T08:45:52.670Z,18.42
2023-02-18T08:51:23.531Z,24.27
2023-02-18T08:56:45.859Z,21.73
2023-02-18T09:02:08.084Z,15.50
2023-02-18T09:07:31.243Z,17.37
2023-02-18T09:12:53.814Z,19.57
2023-02-18T09:18:16.647Z,13.87
2023-02-18T09:23:40.639Z,15.07
2023-02-18T09:29:04.427Z,16.43
2023-02-18T09:34:26.740Z,16.53
2023-02-18T09:39:50.394Z,19.67
2023-02-18T09:45:17.561Z,17.00
2023-02-18T09:50:46.637Z,25.67
2023-02-18T09:56:11.274Z,22.40
2023-02-18T10:01:41.217Z,17.80
2023-02-18T10:12:26.966Z,16.73
2023-02-18T10:17:50.870Z,19.80
2023-02-18T10:23:15.871Z,21.25
2023-02-18T10:28:40.345Z,18.70
2023-02-18T10:34:07.563Z,19.37
2023-02-18T10:39:56.777Z,12.45
2023-02-18T10:45:55.242Z,14.43
2023-02-18T10:51:25.702Z,19.40
2023-02-18T10:57:07.780Z,21.07
2023-02-18T11:02:37.581Z,20.43
2023-02-18T11:08:03.142Z,17.23
2023-02-18T11:13:33.368Z,19.10
2023-02-18T11:19:02.161Z,19.80
2023-02-18T11:24:27.728Z,20.32
2023-02-18T11:29:51.449Z,16.62
2023-02-18T11:35:18.429Z,12.98
2023-02-18T11:40:50.103Z,13.22
2023-02-18T11:46:34.434Z,16.67
2023-02-18T11:52:00.156Z,20.08
2023-02-18T11:57:26.861Z,21.20
2023-02-18T12:02:52.328Z,24.60
2023-02-18T12:08:19.620Z,22.80
2023-02-18T12:13:58.236Z,13.43
2023-02-18T12:19:34.431Z,21.12
2023-02-18T12:25:30.305Z,16.23
2023-02-18T12:31:19.064Z,19.87
2023-02-18T12:37:06.939Z,14.38
2023-02-18T12:43:05.364Z,18.25
2023-02-18T12:48:38.437Z,16.97
2023-02-18T12:54:38.591Z,16.73
2023-02-18T13:00:32.024Z,20.35
2023-02-18T13:06:29.476Z,23.55
2023-02-18T13:12:05.683Z,15.98
2023-02-18T13:17:31.966Z,20.70
2023-02-18T13:22:54.761Z,18.25
2023-02-18T13:28:42.525Z,13.40
2023-02-18T13:34:35.002Z,18.07
2023-02-18T13:40:03.525Z,12.78
2023-02-18T13:45:38.870Z,14.47
2023-02-18T13:51:04.015Z,13.93
2023-02-18T13:56:41.798Z,14.80
2023-02-18T14:02:16.151Z,13.83
2023-02-18T14:07:51.749Z,13.03
2023-02-18T14:13:34.159Z,16.67
2023-02-18T14:19:13.819Z,18.30
2023-02-18T14:24:40.892Z,14.00
2023-02-18T14:30:07.583Z,11.28
2023-02-18T14:36:03.909Z,10.35
2023-02-18T14:41:40.697Z,12.18
2023-02-18T14:47:41.306Z,12.73
2023-02-18T14:53:13.857Z,7.87
2023-02-18T14:58:43.681Z,12.23
2023-02-18T15:04:10.010Z,6.37
2023-02-18T15:09:35.261Z,11.18
2023-02-18T15:15:01.277Z,6.92
2023-02-18T15:20:25.318Z,10.72
2023-02-18T15:25:49.519Z,7.22
2023-02-18T15:31:15.707Z,7.17
2023-02-18T15:36:38.750Z,11.55
2023-02-18T15:42:03.805Z,9.30
2023-02-18T15:47:28.285Z,6.70
2023-02-18T15:52:52.060Z,9.23
2023-02-18T15:58:20.867Z,8.40
2023-02-18T16:03:48.244Z,10.50
2023-02-18T16:09:32.771Z,7.60
2023-02-18T16:15:01.684Z,8.33
2023-02-18T16:20:38.097Z,10.00
2023-02-18T16:26:02.170Z,9.30
2023-02-18T16:31:24.828Z,9.55
2023-02-18T16:37:04.886Z,7.15
2023-02-18T16:47:54.025Z,10.23
2023-02-18T16:53:18.005Z,9.88
2023-02-18T16:58:42.189Z,11.57
2023-02-18T17:04:06.333Z,9.38
2023-02-18T17:09:36.821Z,12.07
2023-02-18T17:14:59.298Z,10.70
2023-02-18T17:20:23.242Z,16.12
2023-02-18T17:25:52.381Z,10.65
2023-02-18T17:31:17.769Z,8.35
2023-02-18T17:36:42.384Z,16.73
2023-02-18T17:42:04.945Z,12.50
2023-02-18T17:47:27.642Z,19.12
2023-02-18T17:52:50.240Z,16.45
2023-02-18T17:58:12.715Z,15.35
2023-02-18T18:03:35.752Z,16.10
2023-02-18T18:08:58.940Z,15.43
2023-02-18T18:14:23.136Z,13.98
2023-02-18T18:19:45.969Z,13.58
2023-02-18T18:25:08.338Z,16.52
2023-02-18T18:30:35.809Z,16.65
2023-02-18T18:36:01.387Z,9.40
2023-02-18T18:41:32.052Z,15.03
2023-02-18T18:46:54.896Z,14.68
2023-02-18T18:52:18.848Z,14.33
2023-02-18T18:57:42.006Z,13.45
2023-02-18T19:03:05.503Z,11.60
2023-02-18T19:08:29.513Z,8.98
2023-02-18T19:13:53.567Z,7.97
2023-02-18T19:19:16.928Z,10.13
2023-02-18T19:24:39.213Z,9.38
2023-02-18T19:30:01.550Z,6.53
2023-02-18T19:35:24.995Z,10.82
2023-02-18T19:40:50.388Z,5.85
2023-02-18T19:46:16.910Z,7.67
2023-02-18T19:51:39.756Z,9.78
2023-02-18T19:57:02.147Z,8.25
2023-02-18T20:02:30.765Z,6.47
2023-02-18T20:07:58.848Z,7.78
2023-02-18T20:13:21.224Z,11.78
2023-02-18T20:18:44.717Z,7.75
2023-02-18T20:24:07.540Z,8.68
2023-02-18T20:29:31.056Z,9.95
2023-02-18T20:34:53.359Z,8.40
2023-02-18T20:40:16.518Z,8.50
2023-02-18T20:45:39.112Z,9.18
2023-02-18T20:51:01.893Z,8.38
2023-02-18T20:56:26.620Z,9.03
2023-02-18T21:01:49.733Z,11.85
2023-02-18T21:07:12.133Z,10.80
2023-02-18T21:12:34.399Z,13.70
2023-02-18T21:17:57.276Z,9.33
2023-02-18T21:23:19.981Z,14.35
2023-02-18T21:28:42.289Z,12.00
2023-02-18T21:34:05.211Z,9.63
2023-02-18T21:39:28.633Z,12.78
2023-02-18T21:44:51.501Z,8.18
2023-02-18T21:50:16.628Z,8.90
2023-02-18T21:55:38.925Z,7.67
2023-02-18T22:01:03.410Z,8.38
2023-02-18T22:06:27.310Z,8.35
2023-02-18T22:11:50.202Z,12.95
2023-02-18T22:17:12.655Z,6.85
2023-02-18T22:22:35.672Z,5.95
2023-02-18T22:27:58.030Z,11.53
2023-02-18T22:33:20.363Z,11.28
2023-02-18T22:38:43.829Z,11.00
2023-02-18T22:44:08.395Z,8.23
2023-02-18T22:49:31.502Z,8.98
2023-02-18T22:54:55.013Z,10.88
2023-02-18T23:00:20.656Z,11.88
2023-02-18T23:05:42.943Z,11.63
2023-02-18T23:11:16.948Z,8.58
2023-02-18T23:16:56.821Z,10.93
2023-02-18T23:22:19.855Z,10.70
2023-02-18T23:27:42.267Z,11.45
2023-02-18T23:33:04.463Z,9.13
2023-02-18T23:38:27.755Z,12.13
2023-02-18T23:43:50.939Z,11.63
2023-02-18T23:49:14.423Z,11.73
2023-02-18T23:54:37.724Z,10.80
2023-02-18T23:59:59.893Z,12.88
